Terminal Aerodrome Forecast
Issued by NWS Duluth, MN

Home | Current Version | Previous Version | Text Only | Print | Product List | Glossary On
Versions: 1 2 3 4 5 6 7 8 9 10 11 12 13 14 15 16 17 18 19 20
000
FTUS43 KDLH 161735
TAFDLH
TAF
KDLH 161735Z 1618/1718 35015G23KT P6SM VCSH BKN025
     FM162000 35015G23KT P6SM BKN025
     FM170100 35010KT P6SM BKN060=

USA.gov is the U.S. government's official web portal to all federal, state and local government web resources and services.